createdAt,value
2018-06-18T00:00:58.709Z,75.30
2018-06-18T00:03:27.733Z,75.40
2018-06-18T00:05:56.712Z,75.50
2018-06-18T00:08:25.736Z,75.70
2018-06-18T00:10:54.727Z,76.20
2018-06-18T00:13:23.709Z,76.00
2018-06-18T00:15:52.996Z,75.80
2018-06-18T00:18:21.989Z,76.00
2018-06-18T00:20:50.973Z,76.40
2018-06-18T00:23:19.995Z,76.20
2018-06-18T00:25:49.093Z,76.80
2018-06-18T00:28:18.075Z,76.50
2018-06-18T00:30:47.064Z,77.00
2018-06-18T00:33:16.077Z,77.20
2018-06-18T00:35:45.064Z,78.20
2018-06-18T00:38:14.255Z,78.60
2018-06-18T00:40:43.245Z,78.50
2018-06-18T00:43:12.232Z,78.90
2018-06-18T00:45:41.252Z,79.10
2018-06-18T00:48:10.270Z,79.70
2018-06-18T00:50:39.328Z,80.30
2018-06-18T00:53:08.452Z,80.00
2018-06-18T00:55:49.371Z,80.20
2018-06-18T00:58:18.724Z,81.50
2018-06-18T01:00:47.760Z,82.50
2018-06-18T01:03:16.787Z,81.70
2018-06-18T01:05:45.872Z,81.80
2018-06-18T01:08:14.857Z,82.40
2018-06-18T01:10:43.900Z,80.80
2018-06-18T01:13:12.891Z,81.10
2018-06-18T01:15:42.070Z,81.10
2018-06-18T01:18:11.061Z,81.40
2018-06-18T01:20:40.052Z,81.60
2018-06-18T01:23:18.300Z,81.40
2018-06-18T01:25:47.317Z,80.30
2018-06-18T01:28:16.346Z,80.10
2018-06-18T01:30:45.357Z,80.60
2018-06-18T01:33:14.456Z,80.90
2018-06-18T01:35:43.438Z,81.10
2018-06-18T01:38:12.420Z,81.20
2018-06-18T01:40:41.469Z,79.80
2018-06-18T01:43:10.456Z,80.50
2018-06-18T01:45:39.440Z,80.80
2018-06-18T01:48:08.463Z,80.90
2018-06-18T01:50:37.483Z,81.10
2018-06-18T01:53:06.630Z,81.90
2018-06-18T01:55:35.852Z,82.70
2018-06-18T01:58:05.063Z,81.80
2018-06-18T02:00:34.062Z,83.00
2018-06-18T02:03:03.096Z,82.90
2018-06-18T02:05:32.093Z,82.80
2018-06-18T02:08:01.121Z,83.20
2018-06-18T02:10:30.229Z,83.90
2018-06-18T02:12:59.225Z,84.20
2018-06-18T02:15:28.220Z,85.50
2018-06-18T02:17:57.273Z,85.70
2018-06-18T02:20:26.264Z,85.90
2018-06-18T02:25:24.306Z,85.80
2018-06-18T02:27:58.727Z,86.30
2018-06-18T02:30:33.322Z,86.50
2018-06-18T02:33:07.737Z,86.00
2018-06-18T02:35:42.212Z,86.10
2018-06-18T02:38:16.558Z,85.60
2018-06-18T02:40:47.516Z,85.50
2018-06-18T02:43:17.744Z,85.30
2018-06-18T02:45:46.939Z,85.00
2018-06-18T02:48:15.973Z,85.20
2018-06-18T02:50:44.913Z,85.30
2018-06-18T02:53:14.233Z,84.50
2018-06-18T02:55:45.707Z,86.40
2018-06-18T02:58:14.735Z,86.70
2018-06-18T03:00:43.765Z,87.70
2018-06-18T03:03:12.772Z,88.90
2018-06-18T03:05:41.884Z,89.10
2018-06-18T03:08:10.944Z,88.90
2018-06-18T03:10:40.184Z,89.20
2018-06-18T03:13:09.176Z,89.30
2018-06-18T03:18:09.476Z,89.80
2018-06-18T03:20:44.036Z,87.70
2018-06-18T03:23:19.669Z,87.90
2018-06-18T03:25:54.230Z,87.40
2018-06-18T03:28:28.800Z,87.70
2018-06-18T03:30:57.878Z,87.70
2018-06-18T03:33:26.847Z,88.80
2018-06-18T03:35:56.073Z,89.50
2018-06-18T03:38:25.153Z,90.10
2018-06-18T03:40:54.516Z,90.10
2018-06-18T03:43:23.541Z,90.10
2018-06-18T03:45:52.553Z,90.00
2018-06-18T03:48:21.636Z,88.60
2018-06-18T03:50:50.643Z,85.30
2018-06-18T03:53:19.620Z,82.60
2018-06-18T03:55:55.966Z,79.60
2018-06-18T03:58:24.981Z,77.30
2018-06-18T04:01:24.853Z,73.30
2018-06-18T04:04:01.214Z,72.30
2018-06-18T04:06:35.737Z,73.80
2018-06-18T04:09:12.492Z,75.10
2018-06-18T04:11:47.120Z,77.80
2018-06-18T04:14:16.497Z,79.60
2018-06-18T04:16:45.775Z,80.40
2018-06-18T04:19:14.801Z,81.00
2018-06-18T04:21:43.789Z,80.70
2018-06-18T04:24:12.813Z,80.80
2018-06-18T04:26:42.124Z,80.70
2018-06-18T04:29:11.206Z,79.50
2018-06-18T04:31:40.220Z,79.90
2018-06-18T04:34:30.855Z,79.90
2018-06-18T04:36:59.936Z,79.60
2018-06-18T04:39:29.157Z,79.30
2018-06-18T04:42:03.572Z,78.90
2018-06-18T04:44:38.140Z,77.80
2018-06-18T04:47:12.830Z,78.30
2018-06-18T04:49:47.217Z,76.40
2018-06-18T04:52:16.247Z,77.50
2018-06-18T04:54:45.253Z,76.80
2018-06-18T04:57:14.267Z,76.10
2018-06-18T04:59:47.773Z,75.70
2018-06-18T05:02:16.813Z,75.90
2018-06-18T05:04:45.840Z,75.00
2018-06-18T05:07:14.825Z,74.40
2018-06-18T05:09:48.254Z,75.70
2018-06-18T05:12:17.392Z,75.40
2018-06-18T05:14:46.381Z,75.50
2018-06-18T05:17:15.404Z,74.90
2018-06-18T05:19:44.416Z,75.60
2018-06-18T05:22:13.505Z,74.00
2018-06-18T05:24:42.480Z,73.20
2018-06-18T05:27:13.419Z,74.00
2018-06-18T05:29:42.445Z,75.20
2018-06-18T05:32:11.429Z,75.00
2018-06-18T05:34:40.541Z,74.00
2018-06-18T05:37:12.400Z,74.60
2018-06-18T05:39:41.421Z,74.80
2018-06-18T05:42:10.445Z,72.90
2018-06-18T05:44:39.501Z,73.30
2018-06-18T05:47:08.480Z,74.10
2018-06-18T05:49:37.513Z,73.90
2018-06-18T05:52:06.528Z,72.90
2018-06-18T05:54:35.507Z,72.40
2018-06-18T05:57:04.513Z,72.00
2018-06-18T05:59:33.516Z,71.60
2018-06-18T06:02:02.554Z,71.50
2018-06-18T06:04:31.536Z,71.70
2018-06-18T06:07:00.531Z,72.90
2018-06-18T06:09:29.736Z,72.90
2018-06-18T06:11:58.724Z,72.80
2018-06-18T06:14:27.720Z,74.40
2018-06-18T06:16:56.860Z,74.30
2018-06-18T06:19:25.844Z,74.60
2018-06-18T06:21:54.828Z,74.60
2018-06-18T06:24:23.821Z,76.30
2018-06-18T06:26:53.145Z,74.00
2018-06-18T06:29:22.129Z,73.80
2018-06-18T06:31:51.123Z,70.40
2018-06-18T06:34:20.141Z,70.10
2018-06-18T06:36:49.198Z,70.90
2018-06-18T06:39:18.191Z,70.30
2018-06-18T06:41:51.228Z,70.50
2018-06-18T06:44:20.258Z,69.80
2018-06-18T06:46:49.271Z,69.00
2018-06-18T06:49:18.292Z,68.80
2018-06-18T06:51:47.295Z,70.20
2018-06-18T06:54:16.300Z,71.10
2018-06-18T06:56:45.289Z,71.00
2018-06-18T06:59:14.277Z,72.70
2018-06-18T07:01:43.301Z,71.50
2018-06-18T07:04:12.321Z,72.40
2018-06-18T07:06:41.497Z,72.30
2018-06-18T07:09:11.836Z,72.20
2018-06-18T07:11:40.904Z,72.60
2018-06-18T07:14:09.928Z,73.00
2018-06-18T07:16:39.013Z,71.20
2018-06-18T07:19:08.032Z,70.60
2018-06-18T07:21:37.053Z,72.00
2018-06-18T07:24:06.052Z,71.10
2018-06-18T07:26:35.036Z,71.00
2018-06-18T07:29:04.110Z,71.40
2018-06-18T07:31:33.084Z,71.90
2018-06-18T07:34:02.076Z,70.90
2018-06-18T07:36:31.098Z,70.30
2018-06-18T07:39:00.238Z,69.30
2018-06-18T07:41:29.273Z,68.20
2018-06-18T07:43:58.287Z,69.70
2018-06-18T07:46:27.324Z,67.30
2018-06-18T07:48:56.343Z,65.70
2018-06-18T07:51:25.400Z,66.20
2018-06-18T07:53:54.425Z,66.40
2018-06-18T07:56:23.561Z,67.80
2018-06-18T07:58:52.589Z,68.60
2018-06-18T08:01:21.572Z,66.90
2018-06-18T08:03:50.754Z,68.90
2018-06-18T08:06:19.744Z,68.80
2018-06-18T08:08:48.751Z,68.70
2018-06-18T08:11:17.773Z,68.70
2018-06-18T08:13:46.765Z,67.80
2018-06-18T08:16:15.777Z,67.70
2018-06-18T08:18:44.801Z,67.40
2018-06-18T08:21:13.842Z,67.30
2018-06-18T08:23:42.876Z,67.50
2018-06-18T08:26:11.848Z,68.10
2018-06-18T08:28:40.838Z,68.50
2018-06-18T08:31:09.898Z,69.00
2018-06-18T08:33:38.871Z,66.90
2018-06-18T08:36:07.893Z,68.30
2018-06-18T08:38:36.873Z,67.90
2018-06-18T08:41:05.861Z,66.70
2018-06-18T08:43:34.876Z,66.30
2018-06-18T08:46:04.051Z,67.20
2018-06-18T08:48:38.614Z,68.80
2018-06-18T08:51:13.050Z,69.40
2018-06-18T08:53:47.500Z,68.60
2018-06-18T08:56:21.954Z,66.10
2018-06-18T08:58:56.288Z,64.70
2018-06-18T09:01:27.417Z,66.10
2018-06-18T09:05:01.849Z,64.50
2018-06-18T09:07:31.551Z,64.40
2018-06-18T09:10:01.209Z,62.00
2018-06-18T09:12:30.236Z,62.10
2018-06-18T09:14:59.208Z,62.70
2018-06-18T09:17:28.216Z,61.80
2018-06-18T09:19:57.277Z,61.00
2018-06-18T09:22:26.269Z,61.20
2018-06-18T09:24:55.445Z,58.20
2018-06-18T09:27:24.437Z,59.30
2018-06-18T09:29:59.045Z,61.40
2018-06-18T09:32:28.122Z,60.30
2018-06-18T09:34:57.073Z,59.70
2018-06-18T09:37:26.084Z,58.80
2018-06-18T09:39:55.254Z,57.10
2018-06-18T09:42:24.245Z,57.80
2018-06-18T09:44:53.245Z,59.20
2018-06-18T09:47:22.477Z,59.40
2018-06-18T09:49:56.875Z,59.70
2018-06-18T09:52:31.304Z,58.70
2018-06-18T09:55:05.712Z,58.00
2018-06-18T09:57:40.295Z,56.00
2018-06-18T10:00:20.612Z,56.00
2018-06-18T10:02:49.619Z,55.60
2018-06-18T10:05:18.597Z,56.20
2018-06-18T10:07:47.580Z,56.30
2018-06-18T10:10:16.589Z,55.10
2018-06-18T10:12:45.581Z,55.70
2018-06-18T10:15:14.590Z,54.70
2018-06-18T10:17:43.629Z,51.90
2018-06-18T10:20:12.655Z,53.20
2018-06-18T10:22:41.633Z,52.90
2018-06-18T10:25:10.682Z,52.90
2018-06-18T10:27:39.692Z,54.90
2018-06-18T10:30:08.681Z,53.50
2018-06-18T10:32:43.052Z,53.40
2018-06-18T10:35:17.525Z,52.30
2018-06-18T10:37:52.136Z,52.90
2018-06-18T10:40:26.429Z,54.20
2018-06-18T10:43:00.834Z,54.40
2018-06-18T10:45:30.089Z,54.30
2018-06-18T10:47:59.109Z,55.60
2018-06-18T10:50:28.138Z,55.30
2018-06-18T10:52:57.149Z,55.20
2018-06-18T10:55:26.181Z,56.60
2018-06-18T10:57:55.473Z,56.70
2018-06-18T11:00:26.000Z,57.10
2018-06-18T11:02:55.708Z,56.70
2018-06-18T11:05:30.366Z,57.70
2018-06-18T11:07:59.385Z,58.00
2018-06-18T11:10:28.364Z,55.90
2018-06-18T11:12:57.401Z,56.00
2018-06-18T11:15:26.417Z,55.20
2018-06-18T11:18:00.933Z,56.50
2018-06-18T11:20:35.428Z,55.10
2018-06-18T11:23:09.844Z,56.90
2018-06-18T11:25:44.349Z,55.30
2018-06-18T11:28:22.018Z,54.10
2018-06-18T11:30:51.061Z,54.00
2018-06-18T11:33:20.037Z,52.00
2018-06-18T11:35:49.028Z,53.20
2018-06-18T11:38:18.053Z,51.30
2018-06-18T11:40:47.082Z,50.80
2018-06-18T11:43:16.089Z,49.30
2018-06-18T11:45:45.084Z,50.80
2018-06-18T11:48:17.386Z,50.50
2018-06-18T11:50:47.021Z,52.30
2018-06-18T11:53:16.465Z,53.10
2018-06-18T11:55:45.512Z,54.10
2018-06-18T11:58:18.864Z,52.50
2018-06-18T12:00:53.196Z,51.90
2018-06-18T12:03:27.562Z,53.00
2018-06-18T12:06:02.154Z,51.40
2018-06-18T12:08:36.717Z,52.00
2018-06-18T12:11:05.696Z,50.50
2018-06-18T12:13:34.685Z,51.10
2018-06-18T12:16:03.696Z,49.30
2018-06-18T12:18:32.726Z,48.60
2018-06-18T12:21:01.713Z,50.40
2018-06-18T12:23:30.713Z,49.80
2018-06-18T12:25:59.733Z,51.00
2018-06-18T12:28:28.740Z,48.80
2018-06-18T12:30:57.788Z,46.70
2018-06-18T12:33:26.768Z,46.70
2018-06-18T12:35:55.748Z,46.40
2018-06-18T12:38:24.789Z,44.90
2018-06-18T12:40:54.000Z,47.00
2018-06-18T12:43:24.983Z,46.20
2018-06-18T12:46:00.077Z,46.80
2018-06-18T12:48:34.533Z,45.90
2018-06-18T12:51:09.042Z,44.00
2018-06-18T12:53:43.521Z,43.90
2018-06-18T12:56:17.997Z,42.70
2018-06-18T12:58:46.972Z,43.10
2018-06-18T13:01:17.748Z,44.50
2018-06-18T13:03:46.776Z,47.00
2018-06-18T13:06:15.765Z,46.10
2018-06-18T13:08:44.775Z,46.70
2018-06-18T13:11:13.770Z,48.40
2018-06-18T13:13:42.779Z,48.30
2018-06-18T13:16:11.792Z,48.20
2018-06-18T13:18:40.833Z,48.70
2018-06-18T13:21:09.822Z,49.00
2018-06-18T13:23:38.805Z,49.50
2018-06-18T13:26:07.820Z,50.90
2018-06-18T13:28:36.862Z,51.50
2018-06-18T13:31:06.004Z,51.70
2018-06-18T13:33:35.028Z,52.70
2018-06-18T13:36:04.067Z,52.80
2018-06-18T13:38:38.450Z,53.40
2018-06-18T13:41:12.979Z,54.00
2018-06-18T13:43:47.352Z,53.40
2018-06-18T13:46:21.904Z,52.40
2018-06-18T13:48:54.517Z,52.40
2018-06-18T13:51:24.509Z,51.70
2018-06-18T13:53:53.900Z,50.90
2018-06-18T13:56:23.096Z,49.30
2018-06-18T13:58:52.737Z,49.60
2018-06-18T14:01:21.941Z,49.40
2018-06-18T14:03:51.811Z,49.70
2018-06-18T14:06:20.924Z,48.50
2018-06-18T14:08:49.942Z,49.20
2018-06-18T14:11:18.925Z,48.00
2018-06-18T14:13:48.014Z,49.50
2018-06-18T14:16:17.267Z,48.60
2018-06-18T14:18:46.284Z,48.10
2018-06-18T14:21:15.268Z,45.80
2018-06-18T14:23:44.248Z,47.10
2018-06-18T14:26:13.277Z,46.40
2018-06-18T14:28:42.265Z,45.50
2018-06-18T14:31:17.273Z,46.10
2018-06-18T14:33:51.694Z,46.20
2018-06-18T14:36:26.118Z,44.90
2018-06-18T14:39:00.526Z,45.10
2018-06-18T14:41:29.553Z,45.60
2018-06-18T14:43:58.541Z,45.60
2018-06-18T14:46:27.604Z,43.90
2018-06-18T14:48:56.609Z,44.40
2018-06-18T14:51:25.607Z,43.00
2018-06-18T14:53:54.713Z,44.00
2018-06-18T14:56:26.787Z,44.30
2018-06-18T14:59:15.461Z,45.50
2018-06-18T15:01:44.441Z,45.10
2018-06-18T15:04:13.569Z,43.80
2018-06-18T15:06:42.570Z,42.40
2018-06-18T15:09:13.034Z,42.70
2018-06-18T15:11:42.651Z,42.90
2018-06-18T15:14:11.646Z,45.10
2018-06-18T15:16:40.721Z,46.20
2018-06-18T15:19:09.983Z,45.40
2018-06-18T15:21:42.245Z,45.60
2018-06-18T15:24:14.631Z,46.00
2018-06-18T15:26:43.744Z,47.40
2018-06-18T15:29:12.717Z,42.50
2018-06-18T15:31:41.744Z,42.20
2018-06-18T15:34:10.722Z,41.80
2018-06-18T15:36:39.736Z,40.00
2018-06-18T15:39:09.555Z,37.70
2018-06-18T15:41:38.581Z,37.50
2018-06-18T15:44:07.932Z,39.70
2018-06-18T15:46:37.091Z,41.80
2018-06-18T15:49:06.338Z,42.90
2018-06-18T15:51:35.449Z,44.60
2018-06-18T15:54:04.493Z,45.60
2018-06-18T15:56:33.598Z,46.80
2018-06-18T15:59:02.936Z,46.90
2018-06-18T16:01:31.957Z,47.40
2018-06-18T16:04:00.945Z,48.60
2018-06-18T16:06:29.982Z,47.50
2018-06-18T16:08:59.016Z,47.40
2018-06-18T16:11:28.033Z,48.40
2018-06-18T16:13:57.044Z,47.80
2018-06-18T16:16:26.077Z,47.90
2018-06-18T16:18:55.069Z,49.00
2018-06-18T16:21:24.068Z,49.40
2018-06-18T16:23:53.307Z,50.00
2018-06-18T16:26:22.581Z,48.40
2018-06-18T16:28:51.561Z,48.50
2018-06-18T16:31:20.596Z,49.10
2018-06-18T16:33:50.103Z,49.30
2018-06-18T16:36:19.157Z,49.90
2018-06-18T16:38:48.136Z,50.10
2018-06-18T16:41:17.180Z,49.50
2018-06-18T16:43:46.184Z,49.30
2018-06-18T16:46:15.348Z,49.10
2018-06-18T16:51:13.006Z,49.50
2018-06-18T16:53:41.988Z,50.70
2018-06-18T16:56:11.089Z,50.00
2018-06-18T16:58:40.343Z,50.20
2018-06-18T17:01:09.330Z,49.90
2018-06-18T17:03:38.333Z,49.20
2018-06-18T17:06:07.359Z,49.70
2018-06-18T17:08:36.361Z,49.60
2018-06-18T17:11:05.352Z,50.50
2018-06-18T17:13:34.401Z,49.90
2018-06-18T17:16:03.466Z,50.80
2018-06-18T17:18:32.587Z,51.30
2018-06-18T17:21:01.629Z,50.90
2018-06-18T17:23:30.626Z,50.40
2018-06-18T17:26:00.565Z,50.90
2018-06-18T17:28:29.708Z,50.80
2018-06-18T17:30:58.706Z,50.70
2018-06-18T17:33:27.738Z,50.80
2018-06-18T17:35:56.820Z,52.40
2018-06-18T17:38:25.831Z,51.10
2018-06-18T17:40:54.853Z,51.80
2018-06-18T17:43:23.907Z,52.20
2018-06-18T17:45:52.886Z,51.90
2018-06-18T17:48:21.965Z,52.20
2018-06-18T17:50:50.973Z,52.20
2018-06-18T17:53:19.965Z,52.40
2018-06-18T17:55:48.980Z,53.20
2018-06-18T17:58:18.118Z,53.20
2018-06-18T18:00:47.180Z,52.60
2018-06-18T18:03:16.161Z,52.60
2018-06-18T18:05:45.188Z,52.30
2018-06-18T18:08:14.178Z,52.20
2018-06-18T18:10:43.241Z,52.20
2018-06-18T18:13:12.260Z,53.80
2018-06-18T18:15:41.257Z,53.30
2018-06-18T18:18:10.281Z,54.70
2018-06-18T18:20:39.349Z,54.00
2018-06-18T18:23:08.367Z,55.30
2018-06-18T18:25:37.382Z,54.30
2018-06-18T18:28:06.383Z,53.70
2018-06-18T18:30:35.412Z,54.00
2018-06-18T18:33:04.405Z,54.00
2018-06-18T18:35:33.433Z,55.10
2018-06-18T18:38:02.614Z,55.30
2018-06-18T18:40:31.633Z,55.60
2018-06-18T18:43:00.658Z,56.00
2018-06-18T18:45:29.981Z,56.40
2018-06-18T18:47:59.121Z,58.10
2018-06-18T18:50:28.120Z,58.80
2018-06-18T18:52:57.139Z,60.60
2018-06-18T18:55:38.939Z,61.40
2018-06-18T18:58:20.987Z,63.90
2018-06-18T19:00:50.545Z,64.10
2018-06-18T19:03:21.493Z,62.50
2018-06-18T19:05:51.217Z,66.30
2018-06-18T19:08:23.025Z,68.90
2018-06-18T19:10:52.018Z,68.60
2018-06-18T19:13:23.256Z,69.70
2018-06-18T19:15:53.988Z,71.00
2018-06-18T19:18:23.037Z,70.80
2018-06-18T19:20:56.935Z,71.70
2018-06-18T19:23:25.948Z,70.30
2018-06-18T19:25:55.173Z,72.40
2018-06-18T19:28:24.240Z,69.80
2018-06-18T19:30:58.169Z,68.40
2018-06-18T19:33:35.069Z,69.30
2018-06-18T19:36:04.341Z,71.10
2018-06-18T19:38:35.299Z,72.40
2018-06-18T19:41:04.289Z,70.70
2018-06-18T19:43:33.384Z,69.10
2018-06-18T19:46:03.292Z,69.50
2018-06-18T19:48:35.857Z,68.30
2018-06-18T19:51:04.906Z,67.50
2018-06-18T19:53:33.890Z,67.90
2018-06-18T19:56:02.969Z,71.80
2018-06-18T19:58:31.948Z,71.20
2018-06-18T20:01:03.136Z,71.20
2018-06-18T20:03:32.144Z,72.40
2018-06-18T20:06:01.201Z,71.90
2018-06-18T20:08:31.212Z,72.30
2018-06-18T20:11:00.298Z,70.40
2018-06-18T20:13:29.315Z,71.00
2018-06-18T20:15:58.333Z,71.70
2018-06-18T20:18:27.326Z,70.80
2018-06-18T20:20:56.409Z,71.60
2018-06-18T20:23:26.445Z,72.20
2018-06-18T20:26:03.290Z,72.00
2018-06-18T20:28:32.383Z,72.40
2018-06-18T20:31:01.369Z,71.60
2018-06-18T20:33:31.587Z,71.80
2018-06-18T20:36:03.845Z,71.20
2018-06-18T20:38:32.853Z,70.80
2018-06-18T20:41:01.846Z,69.60
2018-06-18T20:43:35.905Z,69.40
2018-06-18T20:46:04.969Z,68.00
2018-06-18T20:48:34.005Z,66.50
2018-06-18T20:51:03.022Z,67.00
2018-06-18T20:53:32.008Z,68.20
2018-06-18T20:56:01.029Z,70.50
2018-06-18T20:58:30.026Z,72.00
2018-06-18T21:00:59.108Z,72.80
2018-06-18T21:03:28.116Z,75.00
2018-06-18T21:05:57.165Z,74.90
2018-06-18T21:10:54.803Z,75.90
2018-06-18T21:13:23.833Z,76.10
2018-06-18T21:15:52.824Z,76.30
2018-06-18T21:18:21.842Z,77.20
2018-06-18T21:20:50.817Z,78.10
2018-06-18T21:23:19.848Z,78.00
2018-06-18T21:25:48.833Z,77.20
2018-06-18T21:28:17.876Z,76.70
2018-06-18T21:30:47.244Z,76.60
2018-06-18T21:33:16.416Z,77.00
2018-06-18T21:35:45.532Z,76.20
2018-06-18T21:38:14.559Z,78.00
2018-06-18T21:40:43.713Z,78.00
2018-06-18T21:43:12.680Z,78.70
2018-06-18T21:45:41.700Z,79.00
2018-06-18T21:48:10.689Z,78.20
2018-06-18T21:50:39.706Z,77.50
2018-06-18T21:53:08.696Z,78.00
2018-06-18T21:55:37.712Z,78.80
2018-06-18T21:58:07.453Z,79.20
2018-06-18T22:00:45.031Z,76.00
2018-06-18T22:03:14.029Z,76.90
2018-06-18T22:05:43.069Z,76.80
2018-06-18T22:08:13.573Z,76.40
2018-06-18T22:10:42.617Z,76.20
2018-06-18T22:13:11.633Z,75.90
2018-06-18T22:15:40.646Z,75.90
2018-06-18T22:18:09.684Z,76.60
2018-06-18T22:20:38.698Z,75.90
2018-06-18T22:23:07.749Z,75.30
2018-06-18T22:25:36.769Z,75.50
2018-06-18T22:28:09.886Z,76.90
2018-06-18T22:30:38.901Z,77.50
2018-06-18T22:33:07.940Z,77.60
2018-06-18T22:35:36.925Z,77.70
2018-06-18T22:38:05.965Z,78.50
2018-06-18T22:40:34.997Z,78.80
2018-06-18T22:43:04.338Z,79.10
2018-06-18T22:45:33.325Z,79.40
2018-06-18T22:48:02.305Z,79.80
2018-06-18T22:50:31.329Z,80.00
2018-06-18T22:53:00.589Z,80.10
2018-06-18T22:55:29.640Z,80.60
2018-06-18T22:57:58.656Z,80.60
2018-06-18T23:00:27.659Z,80.60
2018-06-18T23:02:56.680Z,81.10
2018-06-18T23:05:26.546Z,80.70
2018-06-18T23:07:56.300Z,80.70
2018-06-18T23:10:25.550Z,80.70
2018-06-18T23:12:54.560Z,80.70
2018-06-18T23:15:23.553Z,80.90
2018-06-18T23:17:52.578Z,80.80
2018-06-18T23:20:21.565Z,80.90
2018-06-18T23:22:50.588Z,81.40
2018-06-18T23:25:19.661Z,81.50
2018-06-18T23:27:49.296Z,81.60
2018-06-18T23:30:18.290Z,81.80
2018-06-18T23:32:47.309Z,81.90
2018-06-18T23:35:16.337Z,82.10
2018-06-18T23:37:45.357Z,82.40
2018-06-18T23:40:14.373Z,82.60
2018-06-18T23:42:43.401Z,82.50
2018-06-18T23:45:12.389Z,82.50
2018-06-18T23:47:42.323Z,82.50
2018-06-18T23:50:11.382Z,82.40
2018-06-18T23:52:40.413Z,82.10
2018-06-18T23:55:09.591Z,81.80
2018-06-18T23:57:38.573Z,81.90
